Time;durP1;ratioP1;P1;durP2;ratioP2;P2;SDS_P1;SDS_P2;PMS_P1;PMS_P2;Temp;Humidity;BMP_temperature;BMP_pressure;BME280_temperature;BME280_humidity;BME280_pressure;Samples;Min_cycle;Max_cycle;Signal;HPM_P1;HPM_P2
2021/11/27 00:04:36;;;;;;;3.75;2.92;;;23.40;57.10;;;;;;31547445;28;20041;-42
2021/11/27 00:19:39;;;;;;;6.35;2.85;;;23.40;57.60;;;;;;31575326;28;20044;-45
2021/11/27 00:34:41;;;;;;;4.65;3.08;;;23.30;57.60;;;;;;31609151;28;20052;-49
2021/11/27 00:49:43;;;;;;;3.40;2.80;;;23.20;58.20;;;;;;31520254;28;20053;-45
2021/11/27 01:04:45;;;;;;;4.22;2.60;;;23.10;58.20;;;;;;31600170;28;20068;-44
2021/11/27 01:19:47;;;;;;;3.38;2.40;;;23.00;58.30;;;;;;31540289;28;20045;-41
2021/11/27 01:34:50;;;;;;;3.22;2.38;;;22.90;58.70;;;;;;31497652;28;20049;-44
2021/11/27 01:49:52;;;;;;;2.53;2.10;;;22.90;58.80;;;;;;31496218;28;20053;-51
2021/11/27 02:04:54;;;;;;;2.45;2.10;;;22.80;58.70;;;;;;31496926;28;20044;-47
2021/11/27 02:19:56;;;;;;;2.20;1.83;;;22.70;58.80;;;;;;31534353;28;20127;-45
2021/11/27 02:34:58;;;;;;;2.58;1.85;;;23.20;58.80;;;;;;31558631;28;20060;-41
2021/11/27 02:50:02;;;;;;;6.57;5.82;;;23.50;58.00;;;;;;31497864;28;20049;-44
2021/11/27 03:05:05;;;;;;;9.15;6.80;;;23.30;57.30;;;;;;31568326;28;20085;-54
2021/11/27 03:20:08;;;;;;;8.57;6.72;;;23.00;57.50;;;;;;31513999;28;20047;-50
2021/11/27 03:35:11;;;;;;;7.72;6.75;;;23.00;57.70;;;;;;31514185;28;20055;-48
2021/11/27 03:50:14;;;;;;;6.57;5.80;;;22.80;57.80;;;;;;31614523;28;20048;-50
2021/11/27 04:05:18;;;;;;;6.78;5.63;;;22.70;58.10;;;;;;31522431;28;20104;-43
2021/11/27 04:20:20;;;;;;;5.15;4.65;;;22.80;58.20;;;;;;31559528;28;20047;-45
2021/11/27 04:35:25;;;;;;;6.78;4.75;;;23.10;58.00;;;;;;31567963;28;20048;-41
2021/11/27 04:50:30;;;;;;;5.20;4.45;;;23.20;57.70;;;;;;31508980;28;20056;-41
2021/11/27 05:05:33;;;;;;;6.55;5.00;;;23.00;57.70;;;;;;31569232;28;20045;-47
2021/11/27 05:20:35;;;;;;;5.32;4.28;;;22.90;57.90;;;;;;31504547;28;20045;-53
2021/11/27 05:35:38;;;;;;;5.43;4.70;;;22.80;58.20;;;;;;31594347;28;20040;-54
2021/11/27 05:50:40;;;;;;;5.68;4.25;;;22.70;58.20;;;;;;31610986;28;20057;-44
2021/11/27 06:05:43;;;;;;;5.68;3.65;;;22.70;58.10;;;;;;31555838;28;20049;-47
2021/11/27 06:20:45;;;;;;;3.63;3.28;;;23.10;58.30;;;;;;31495621;28;20487;-40
2021/11/27 06:35:47;;;;;;;3.83;3.40;;;23.30;57.90;;;;;;31505787;28;20041;-44
2021/11/27 06:50:49;;;;;;;3.90;3.38;;;23.20;57.90;;;;;;31600724;28;20051;-40
2021/11/27 07:05:51;;;;;;;2.97;2.67;;;23.10;57.60;;;;;;31632917;28;20048;-39
2021/11/27 07:20:53;;;;;;;3.28;2.95;;;23.10;58.00;;;;;;31595589;28;20087;-50
2021/11/27 07:35:56;;;;;;;13.43;10.35;;;23.00;58.30;;;;;;31589201;28;20097;-50
2021/11/27 07:50:59;;;;;;;17.88;9.15;;;22.40;50.00;;;;;;31531716;28;20057;-42
2021/11/27 08:06:02;;;;;;;10.38;7.53;;;22.80;55.20;;;;;;31565211;28;20053;-39
2021/11/27 08:21:04;;;;;;;16.00;7.28;;;23.30;56.00;;;;;;31566910;28;20036;-39
2021/11/27 08:36:22;;;;;;;25.15;14.18;;;23.30;57.90;;;;;;31606092;28;20064;-42
2021/11/27 08:51:24;;;;;;;18.85;11.35;;;23.10;57.00;;;;;;31627726;28;20082;-45
2021/11/27 09:06:27;;;;;;;33.10;25.88;;;22.90;57.10;;;;;;31616891;28;20122;-41
2021/11/27 09:21:29;;;;;;;37.42;27.92;;;22.70;54.30;;;;;;31623562;28;20052;-46
2021/11/27 09:36:31;;;;;;;27.15;22.52;;;22.60;55.20;;;;;;31622966;28;20079;-41
2021/11/27 09:51:36;;;;;;;21.13;16.98;;;22.40;55.30;;;;;;31626826;28;20052;-41
2021/11/27 10:06:41;;;;;;;17.15;12.73;;;22.60;54.70;;;;;;31625731;28;20052;-41
2021/11/27 10:21:43;;;;;;;20.05;15.77;;;22.90;53.10;;;;;;31643455;28;20056;-39
2021/11/27 10:36:45;;;;;;;22.00;12.95;;;22.90;54.50;;;;;;31647920;28;20078;-41
2021/11/27 10:51:47;;;;;;;21.00;12.27;;;22.80;53.70;;;;;;31641851;28;20076;-42
2021/11/27 11:06:49;;;;;;;19.05;11.05;;;22.90;55.00;;;;;;31630496;28;20070;-43
2021/11/27 11:22:12;;;;;;;39.08;14.20;;;22.80;55.90;;;;;;31582608;28;20044;-54
2021/11/27 11:37:15;;;;;;;33.83;18.52;;;22.80;55.90;;;;;;31146599;28;10001544;-54
2021/11/27 11:52:44;;;;;;;21.58;16.02;;;22.70;56.00;;;;;;31495941;28;20068;-52
2021/11/27 12:07:52;;;;;;;25.75;17.23;;;23.00;55.50;;;;;;31510209;28;20041;-55
2021/11/27 12:23:50;;;;;;;29.55;22.33;;;23.20;55.50;;;;;;31507505;28;20039;-50
2021/11/27 12:38:58;;;;;;;31.77;21.00;;;23.10;55.60;;;;;;31555774;28;20064;-48
2021/11/27 12:54:00;;;;;;;30.60;19.85;;;23.00;56.10;;;;;;31616791;28;20090;-47
2021/11/27 13:09:14;;;;;;;24.02;17.40;;;22.90;56.50;;;;;;31597270;28;20059;-49
2021/11/27 13:24:16;;;;;;;26.02;15.52;;;22.90;56.90;;;;;;31615555;28;20067;-50
2021/11/27 13:39:24;;;;;;;24.02;14.10;;;22.80;57.20;;;;;;31553981;28;20045;-51
2021/11/27 13:54:31;;;;;;;19.05;13.95;;;22.90;57.00;;;;;;31495285;28;20064;-54
2021/11/27 14:09:45;;;;;;;16.98;12.00;;;23.20;56.60;;;;;;31494622;28;20108;-48
2021/11/27 14:24:47;;;;;;;15.05;11.13;;;23.20;56.40;;;;;;31494039;28;20048;-48
2021/11/27 14:39:56;;;;;;;14.10;10.48;;;23.00;56.60;;;;;;31493025;28;20510;-49
2021/11/27 14:55:02;;;;;;;28.73;10.53;;;23.00;56.90;;;;;;31492135;28;20139;-48
2021/11/27 15:10:08;;;;;;;11.85;8.60;;;22.80;57.10;;;;;;31510247;28;20344;-53
2021/11/27 15:25:11;;;;;;;21.10;8.98;;;22.80;57.00;;;;;;31512085;28;20048;-45
2021/11/27 15:40:13;;;;;;;14.77;7.95;;;22.90;56.60;;;;;;31222308;28;10000194;-47
2021/11/27 15:55:15;;;;;;;11.18;6.80;;;23.20;56.00;;;;;;31633893;28;20060;-46
2021/11/27 16:10:30;;;;;;;9.38;6.63;;;23.20;56.00;;;;;;31631291;28;20131;-47
2021/11/27 16:25:32;;;;;;;13.32;7.28;;;23.10;56.10;;;;;;31630593;28;20048;-51
2021/11/27 16:40:35;;;;;;;18.33;9.05;;;23.00;56.50;;;;;;31628364;28;20040;-50
2021/11/27 16:55:37;;;;;;;22.48;8.40;;;23.00;57.50;;;;;;31626073;28;20106;-52
2021/11/27 17:10:39;;;;;;;20.35;10.88;;;22.90;58.10;;;;;;31624323;28;20104;-53
2021/11/27 17:25:41;;;;;;;15.82;9.90;;;22.90;58.60;;;;;;31622086;28;20048;-54
2021/11/27 17:40:43;;;;;;;17.45;9.93;;;22.70;58.90;;;;;;31621855;28;20068;-50
2021/11/27 17:55:46;;;;;;;18.90;9.27;;;22.90;58.80;;;;;;31620155;28;20076;-45
2021/11/27 18:10:50;;;;;;;24.80;10.48;;;23.30;58.30;;;;;;31619038;28;20082;-49
2021/11/27 18:40:57;;;;;;;32.25;9.88;;;23.30;58.90;;;;;;31632053;28;20100;-47
2021/11/27 18:56:00;;;;;;;17.13;9.93;;;23.20;58.60;;;;;;31640744;28;20056;-45
2021/11/27 19:11:03;;;;;;;22.65;9.95;;;23.00;58.80;;;;;;31638901;28;20049;-50
2021/11/27 19:26:05;;;;;;;20.40;8.95;;;22.90;59.00;;;;;;31248701;28;10000402;-43
2021/11/27 19:41:08;;;;;;;16.45;7.63;;;22.90;59.10;;;;;;31502542;28;20060;-49
2021/11/27 19:56:10;;;;;;;16.77;7.90;;;22.90;59.40;;;;;;31503676;28;20121;-40
2021/11/27 20:11:14;;;;;;;12.68;6.93;;;22.90;59.80;;;;;;31525583;28;20068;-48
2021/11/27 20:26:16;;;;;;;13.65;6.80;;;23.00;59.50;;;;;;31526023;28;20049;-45
2021/11/27 20:41:19;;;;;;;16.63;6.78;;;23.00;59.90;;;;;;31615022;28;20048;-50
2021/11/27 20:56:21;;;;;;;14.30;6.20;;;22.90;59.90;;;;;;31565109;28;20148;-44
2021/11/27 21:11:33;;;;;;;15.63;6.70;;;23.00;59.50;;;;;;31563213;28;20056;-52
2021/11/27 21:26:35;;;;;;;18.08;6.00;;;22.90;60.00;;;;;;31550021;28;20052;-51
2021/11/27 21:41:38;;;;;;;15.55;5.22;;;22.90;60.80;;;;;;31557765;28;20053;-43
2021/11/27 21:56:41;;;;;;;34.30;5.90;;;23.00;59.70;;;;;;31577327;28;20112;-51
2021/11/27 22:11:43;;;;;;;15.02;5.68;;;22.90;60.70;;;;;;31618213;28;20055;-52
2021/11/27 22:26:45;;;;;;;21.52;5.70;;;22.70;60.10;;;;;;31520252;28;20045;-41
2021/11/27 22:41:48;;;;;;;7.50;4.82;;;22.60;60.40;;;;;;31522586;28;20063;-54
2021/11/27 22:56:52;;;;;;;8.07;4.00;;;22.80;60.50;;;;;;31617762;28;20053;-53
2021/11/27 23:11:54;;;;;;;7.85;3.90;;;23.20;60.70;;;;;;31512779;28;20056;-57
2021/11/27 23:26:56;;;;;;;6.43;3.95;;;23.30;60.90;;;;;;31514863;28;20067;-46
2021/11/27 23:41:58;;;;;;;9.13;4.10;;;23.20;60.20;;;;;;31511608;28;20045;-53
2021/11/27 23:57:04;;;;;;;5.63;3.58;;;23.00;61.20;;;;;;31529304;28;20104;-53
